createdAt,value
2023-03-12T00:00:08.388Z,62.74
2023-03-12T00:03:30.050Z,62.90
2023-03-12T00:06:31.867Z,62.85
2023-03-12T00:09:38.445Z,62.89
2023-03-12T00:12:40.315Z,62.68
2023-03-12T00:15:42.005Z,62.61
2023-03-12T00:18:46.688Z,62.63
2023-03-12T00:21:48.388Z,62.62
2023-03-12T00:24:54.342Z,62.80
2023-03-12T00:27:56.064Z,62.73
2023-03-12T00:30:58.343Z,62.89
2023-03-12T00:34:01.694Z,62.70
2023-03-12T00:37:03.464Z,62.65
2023-03-12T00:40:08.061Z,62.84
2023-03-12T00:43:10.210Z,62.78
2023-03-12T00:46:12.243Z,62.96
2023-03-12T00:49:13.929Z,63.04
2023-03-12T00:52:15.714Z,62.85
2023-03-12T00:55:17.514Z,62.72
2023-03-12T00:58:19.303Z,63.07
2023-03-12T01:01:21.050Z,62.84
2023-03-12T01:04:23.017Z,62.93
2023-03-12T01:07:24.758Z,62.82
2023-03-12T01:10:26.408Z,62.92
2023-03-12T01:13:28.148Z,62.86
2023-03-12T01:16:30.062Z,62.91
2023-03-12T01:19:31.797Z,62.79
2023-03-12T01:22:34.453Z,62.75
2023-03-12T01:25:36.494Z,62.68
2023-03-12T01:28:38.212Z,62.79
2023-03-12T01:31:39.911Z,62.69
2023-03-12T01:34:41.543Z,62.57
2023-03-12T01:37:43.208Z,62.51
2023-03-12T01:40:44.999Z,62.55
2023-03-12T01:43:46.798Z,62.54
2023-03-12T01:46:48.643Z,62.45
2023-03-12T01:49:55.574Z,62.49
2023-03-12T01:52:57.201Z,62.56
2023-03-12T01:56:01.055Z,62.44
2023-03-12T01:59:13.427Z,62.22
2023-03-12T02:02:15.916Z,62.41
2023-03-12T02:05:20.875Z,62.37
2023-03-12T02:08:24.140Z,62.34
2023-03-12T02:11:25.891Z,62.32
2023-03-12T02:14:27.912Z,62.29
2023-03-12T02:17:30.656Z,62.24
2023-03-12T02:20:56.463Z,62.44
2023-03-12T02:24:29.272Z,62.47
2023-03-12T02:27:32.179Z,62.42
2023-03-12T02:30:35.698Z,62.36
2023-03-12T02:33:37.521Z,62.29
2023-03-12T02:36:39.349Z,62.29
2023-03-12T02:39:43.998Z,62.23
2023-03-12T02:42:46.046Z,62.36
2023-03-12T02:45:48.164Z,62.26
2023-03-12T02:48:50.814Z,62.23
2023-03-12T02:51:52.987Z,62.24
2023-03-12T02:54:54.646Z,62.21
2023-03-12T02:57:56.421Z,62.30
2023-03-12T03:00:58.551Z,62.13
2023-03-12T03:04:03.559Z,62.25
2023-03-12T03:07:05.401Z,62.19
2023-03-12T03:10:08.113Z,62.10
2023-03-12T03:13:09.798Z,62.11
2023-03-12T03:16:12.845Z,62.00
2023-03-12T03:19:14.933Z,61.97
2023-03-12T03:22:17.602Z,61.94
2023-03-12T03:25:21.668Z,61.87
2023-03-12T03:28:25.918Z,62.00
2023-03-12T03:31:27.789Z,62.03
2023-03-12T03:34:29.638Z,61.90
2023-03-12T03:37:31.576Z,62.02
2023-03-12T03:40:33.514Z,61.64
2023-03-12T03:43:35.475Z,61.95
2023-03-12T03:46:37.171Z,61.76
2023-03-12T03:49:41.139Z,61.63
2023-03-12T03:52:43.122Z,61.55
2023-03-12T03:55:45.608Z,61.42
2023-03-12T03:58:47.702Z,61.61
2023-03-12T04:01:49.772Z,61.56
2023-03-12T04:04:51.820Z,61.63
2023-03-12T04:07:55.291Z,61.38
2023-03-12T04:10:58.343Z,61.28
2023-03-12T04:14:00.052Z,61.12
2023-03-12T04:17:04.505Z,61.03
2023-03-12T04:20:08.752Z,61.05
2023-03-12T04:23:11.132Z,61.07
2023-03-12T04:26:13.208Z,60.92
2023-03-12T04:29:15.492Z,60.90
2023-03-12T04:32:17.960Z,60.69
2023-03-12T04:35:19.870Z,60.56
2023-03-12T04:38:23.595Z,60.42
2023-03-12T04:41:25.571Z,60.37
2023-03-12T04:44:32.094Z,60.20
2023-03-12T04:47:34.091Z,60.11
2023-03-12T04:50:35.808Z,60.16
2023-03-12T04:53:39.848Z,60.18
2023-03-12T04:56:43.418Z,60.01
2023-03-12T04:59:45.542Z,59.96
2023-03-12T05:02:47.663Z,59.86
2023-03-12T05:05:49.643Z,59.93
2023-03-12T05:08:51.737Z,59.80
2023-03-12T05:11:53.661Z,59.73
2023-03-12T05:14:56.195Z,59.72
2023-03-12T05:17:58.098Z,59.76
2023-03-12T05:21:05.272Z,59.64
2023-03-12T05:24:08.590Z,59.58
2023-03-12T05:27:10.984Z,59.35
2023-03-12T05:30:13.510Z,59.33
2023-03-12T05:33:15.491Z,59.40
2023-03-12T05:36:17.796Z,59.31
2023-03-12T05:39:19.930Z,59.10
2023-03-12T05:42:23.631Z,59.10
2023-03-12T05:45:25.779Z,59.11
2023-03-12T05:48:28.889Z,58.99
2023-03-12T05:51:30.818Z,58.96
2023-03-12T05:54:32.880Z,58.80
2023-03-12T05:57:34.678Z,58.61
2023-03-12T06:00:37.511Z,58.79
2023-03-12T06:03:39.889Z,58.62
2023-03-12T06:06:41.759Z,58.62
2023-03-12T06:09:43.513Z,58.46
2023-03-12T06:12:46.141Z,58.40
2023-03-12T06:15:48.778Z,58.18
2023-03-12T06:19:01.360Z,58.18
2023-03-12T06:22:03.628Z,58.13
2023-03-12T06:25:05.980Z,57.93
2023-03-12T06:28:07.749Z,57.96
2023-03-12T06:31:09.629Z,57.86
2023-03-12T06:34:11.438Z,57.64
2023-03-12T06:37:13.174Z,57.55
2023-03-12T06:40:15.006Z,57.60
2023-03-12T06:43:16.748Z,57.56
2023-03-12T06:46:24.875Z,57.65
2023-03-12T06:49:31.427Z,57.37
2023-03-12T06:52:34.072Z,57.19
2023-03-12T06:55:36.041Z,57.06
2023-03-12T06:58:38.140Z,56.86
2023-03-12T07:01:39.780Z,56.99
2023-03-12T07:04:41.514Z,56.79
2023-03-12T07:07:43.344Z,56.67
2023-03-12T07:10:45.901Z,56.64
2023-03-12T07:13:47.629Z,56.59
2023-03-12T07:16:50.272Z,57.02
2023-03-12T07:19:52.165Z,56.52
2023-03-12T07:22:53.960Z,56.42
2023-03-12T07:25:55.706Z,56.10
2023-03-12T07:28:57.424Z,55.92
2023-03-12T07:31:59.205Z,55.94
2023-03-12T07:35:01.015Z,55.87
2023-03-12T07:38:03.339Z,55.61
2023-03-12T07:41:05.436Z,55.54
2023-03-12T07:44:07.484Z,55.40
2023-03-12T07:47:23.218Z,54.96
2023-03-12T07:50:25.844Z,55.01
2023-03-12T07:53:27.632Z,55.17
2023-03-12T07:56:29.378Z,55.03
2023-03-12T07:59:31.114Z,54.97
2023-03-12T08:02:33.680Z,54.97
2023-03-12T08:05:35.859Z,54.75
2023-03-12T08:08:41.107Z,54.54
2023-03-12T08:11:43.028Z,54.53
2023-03-12T08:14:46.617Z,54.35
2023-03-12T08:17:49.425Z,54.45
2023-03-12T08:20:52.369Z,54.32
2023-03-12T08:23:54.169Z,54.21
2023-03-12T08:26:56.256Z,54.14
2023-03-12T08:29:58.004Z,54.26
2023-03-12T08:32:59.787Z,54.15
2023-03-12T08:36:01.658Z,53.82
2023-03-12T08:39:03.953Z,53.93
2023-03-12T08:42:07.075Z,54.13
2023-03-12T08:45:10.801Z,54.27
2023-03-12T08:48:12.541Z,53.88
2023-03-12T08:51:16.805Z,53.75
2023-03-12T08:54:20.224Z,53.88
2023-03-12T08:57:22.002Z,54.24
2023-03-12T09:00:24.453Z,53.86
2023-03-12T09:03:26.592Z,53.72
2023-03-12T09:06:32.816Z,54.02
2023-03-12T09:09:34.776Z,54.07
2023-03-12T09:12:45.561Z,53.86
2023-03-12T09:15:47.858Z,53.56
2023-03-12T09:18:49.565Z,53.58
2023-03-12T09:21:51.351Z,53.37
2023-03-12T09:24:53.069Z,53.58
2023-03-12T09:27:54.812Z,53.39
2023-03-12T09:30:56.501Z,53.29
2023-03-12T09:33:58.255Z,53.30
2023-03-12T09:37:00.238Z,52.89
2023-03-12T09:40:06.941Z,52.96
2023-03-12T09:43:46.071Z,53.02
2023-03-12T09:46:53.007Z,53.01
2023-03-12T09:50:19.941Z,53.18
2023-03-12T09:53:34.089Z,53.36
2023-03-12T09:56:37.400Z,52.87
2023-03-12T09:59:39.978Z,52.72
2023-03-12T10:03:06.581Z,52.86
2023-03-12T10:06:24.949Z,53.15
2023-03-12T10:09:39.313Z,52.63
2023-03-12T10:13:18.764Z,52.42
2023-03-12T10:16:30.150Z,52.68
2023-03-12T10:19:50.202Z,52.27
2023-03-12T10:22:58.201Z,52.37
2023-03-12T10:26:09.664Z,52.59
2023-03-12T10:29:27.625Z,52.59
2023-03-12T10:32:38.315Z,52.56
2023-03-12T10:35:43.603Z,52.02
2023-03-12T10:38:48.829Z,51.49
2023-03-12T10:41:52.482Z,51.60
2023-03-12T10:45:00.822Z,51.36
2023-03-12T10:48:08.246Z,51.39
2023-03-12T10:51:12.406Z,51.34
2023-03-12T10:54:29.095Z,51.40
2023-03-12T10:57:41.226Z,51.18
2023-03-12T11:00:56.987Z,50.91
2023-03-12T11:04:23.376Z,50.26
2023-03-12T11:07:35.367Z,49.86
2023-03-12T11:10:47.610Z,49.60
2023-03-12T11:14:07.215Z,49.58
2023-03-12T11:17:20.746Z,49.58
2023-03-12T11:20:32.503Z,49.64
2023-03-12T11:23:36.189Z,49.50
2023-03-12T11:26:50.953Z,49.50
2023-03-12T11:29:53.819Z,49.17
2023-03-12T11:32:57.390Z,49.42
2023-03-12T11:36:17.426Z,49.52
2023-03-12T11:39:38.158Z,49.36
2023-03-12T11:42:57.899Z,49.22
2023-03-12T11:46:14.735Z,48.96
2023-03-12T11:49:40.979Z,49.10
2023-03-12T11:53:08.176Z,49.16
2023-03-12T11:56:21.190Z,48.91
2023-03-12T11:59:28.978Z,48.73
2023-03-12T12:02:55.183Z,48.67
2023-03-12T12:06:12.603Z,48.66
2023-03-12T12:09:33.274Z,48.58
2023-03-12T12:13:17.385Z,48.06
2023-03-12T12:16:29.183Z,47.70
2023-03-12T12:19:58.729Z,47.93
2023-03-12T12:23:17.021Z,48.27
2023-03-12T12:26:40.754Z,48.56
2023-03-12T12:29:52.756Z,48.40
2023-03-12T12:33:11.257Z,48.12
2023-03-12T12:36:13.881Z,47.91
2023-03-12T12:39:39.805Z,47.58
2023-03-12T12:43:03.596Z,47.66
2023-03-12T12:46:11.558Z,47.50
2023-03-12T12:49:25.400Z,47.20
2023-03-12T12:52:28.146Z,47.37
2023-03-12T12:55:41.186Z,47.24
2023-03-12T12:58:57.830Z,47.30
2023-03-12T13:02:02.368Z,47.14
2023-03-12T13:05:21.807Z,46.93
2023-03-12T13:08:38.733Z,46.92
2023-03-12T13:11:45.551Z,46.65
2023-03-12T13:14:49.116Z,46.53
2023-03-12T13:17:50.842Z,46.66
2023-03-12T13:20:52.521Z,46.76
2023-03-12T13:24:18.236Z,47.02
2023-03-12T13:27:44.652Z,47.28
2023-03-12T13:30:50.041Z,47.33
2023-03-12T13:33:55.948Z,47.02
2023-03-12T13:37:01.349Z,46.75
2023-03-12T13:40:28.751Z,46.80
2023-03-12T13:43:39.384Z,46.90
2023-03-12T13:46:43.619Z,47.06
2023-03-12T13:50:02.884Z,46.98
2023-03-12T13:53:14.453Z,47.25
2023-03-12T13:56:19.479Z,47.09
2023-03-12T13:59:24.117Z,46.99
2023-03-12T14:02:36.367Z,47.01
2023-03-12T14:06:10.403Z,46.61
2023-03-12T14:09:14.893Z,46.61
2023-03-12T14:12:52.349Z,46.48
2023-03-12T14:15:59.546Z,46.48
2023-03-12T14:19:04.505Z,46.43
2023-03-12T14:22:10.885Z,46.48
2023-03-12T14:25:14.489Z,46.56
2023-03-12T14:28:22.120Z,46.56
2023-03-12T14:31:25.311Z,46.63
2023-03-12T14:34:32.608Z,46.59
2023-03-12T14:37:43.462Z,46.59
2023-03-12T14:40:52.273Z,46.56
2023-03-12T14:43:54.295Z,46.46
2023-03-12T14:47:00.814Z,46.25
2023-03-12T14:50:03.306Z,46.08
2023-03-12T14:53:24.237Z,46.27
2023-03-12T14:56:32.695Z,46.36
2023-03-12T14:59:37.027Z,46.46
2023-03-12T15:02:39.640Z,46.26
2023-03-12T15:05:49.197Z,46.42
2023-03-12T15:08:51.054Z,46.16
2023-03-12T15:11:58.824Z,46.40
2023-03-12T15:15:06.653Z,46.26
2023-03-12T15:18:15.578Z,46.22
2023-03-12T15:21:17.472Z,46.38
2023-03-12T15:24:19.598Z,46.46
2023-03-12T15:27:24.129Z,46.27
2023-03-12T15:30:26.946Z,46.58
2023-03-12T15:33:28.652Z,46.50
2023-03-12T15:36:32.813Z,46.41
2023-03-12T15:39:37.299Z,46.39
2023-03-12T15:42:42.992Z,46.56
2023-03-12T15:45:45.426Z,46.59
2023-03-12T15:48:50.736Z,46.52
2023-03-12T15:52:06.825Z,46.59
2023-03-12T15:55:14.398Z,46.64
2023-03-12T15:58:27.886Z,46.62
2023-03-12T16:01:29.726Z,46.85
2023-03-12T16:04:31.481Z,46.61
2023-03-12T16:07:33.408Z,46.73
2023-03-12T16:10:36.386Z,46.28
2023-03-12T16:13:38.387Z,46.02
2023-03-12T16:16:40.136Z,45.85
2023-03-12T16:19:41.917Z,45.81
2023-03-12T16:22:43.946Z,45.67
2023-03-12T16:25:49.774Z,45.41
2023-03-12T16:28:51.483Z,45.63
2023-03-12T16:31:55.282Z,45.43
2023-03-12T16:34:57.111Z,45.56
2023-03-12T16:38:02.672Z,45.40
2023-03-12T16:41:04.515Z,45.33
2023-03-12T16:44:08.547Z,45.39
2023-03-12T16:47:13.533Z,45.47
2023-03-12T16:50:20.470Z,45.70
2023-03-12T16:53:22.728Z,45.28
2023-03-12T16:56:26.068Z,45.52
2023-03-12T16:59:31.127Z,45.54
2023-03-12T17:02:34.522Z,45.52
2023-03-12T17:05:36.256Z,45.71
2023-03-12T17:08:37.975Z,45.55
2023-03-12T17:11:40.299Z,45.65
2023-03-12T17:14:41.895Z,45.61
2023-03-12T17:17:43.866Z,45.68
2023-03-12T17:20:48.034Z,46.13
2023-03-12T17:23:50.447Z,46.22
2023-03-12T17:26:52.760Z,46.23
2023-03-12T17:29:54.332Z,46.16
2023-03-12T17:33:08.610Z,46.10
2023-03-12T17:36:10.842Z,46.26
2023-03-12T17:39:12.799Z,46.24
2023-03-12T17:42:15.013Z,46.37
2023-03-12T17:45:16.813Z,46.36
2023-03-12T17:48:22.778Z,46.66
2023-03-12T17:51:25.171Z,46.61
2023-03-12T17:54:26.899Z,46.41
2023-03-12T17:57:29.180Z,46.62
2023-03-12T18:00:31.060Z,46.37
2023-03-12T18:03:35.315Z,46.38
2023-03-12T18:06:38.318Z,46.41
2023-03-12T18:09:40.122Z,46.40
2023-03-12T18:12:42.028Z,46.52
2023-03-12T18:15:51.100Z,46.52
2023-03-12T18:18:53.137Z,46.44
2023-03-12T18:21:54.853Z,46.37
2023-03-12T18:24:56.547Z,46.21
2023-03-12T18:27:58.315Z,46.46
2023-03-12T18:31:00.203Z,46.50
2023-03-12T18:34:02.028Z,46.11
2023-03-12T18:37:03.807Z,46.18
2023-03-12T18:40:07.041Z,46.17
2023-03-12T18:43:08.819Z,46.28
2023-03-12T18:46:12.306Z,46.06
2023-03-12T18:49:13.999Z,46.25
2023-03-12T18:52:15.721Z,46.26
2023-03-12T18:55:17.711Z,46.47
2023-03-12T18:58:19.767Z,46.36
2023-03-12T19:01:21.784Z,46.50
2023-03-12T19:04:25.075Z,46.40
2023-03-12T19:07:26.988Z,46.48
2023-03-12T19:10:28.772Z,46.43
2023-03-12T19:13:30.607Z,46.42
2023-03-12T19:16:32.354Z,46.56
2023-03-12T19:19:34.452Z,46.25
2023-03-12T19:22:36.161Z,46.36
2023-03-12T19:25:37.951Z,46.38
2023-03-12T19:28:40.682Z,46.13
2023-03-12T19:31:42.741Z,46.14
2023-03-12T19:34:48.890Z,46.30
2023-03-12T19:37:51.950Z,46.08
2023-03-12T19:40:56.317Z,46.07
2023-03-12T19:43:58.075Z,46.27
2023-03-12T19:47:01.558Z,45.97
2023-03-12T19:50:03.601Z,45.98
2023-03-12T19:53:05.821Z,45.92
2023-03-12T19:56:07.684Z,45.88
2023-03-12T19:59:09.464Z,45.74
2023-03-12T20:02:14.941Z,45.66
2023-03-12T20:05:16.934Z,45.68
2023-03-12T20:08:20.267Z,45.58
2023-03-12T20:11:22.233Z,45.54
2023-03-12T20:14:24.402Z,45.62
2023-03-12T20:17:26.125Z,45.63
2023-03-12T20:20:28.200Z,45.47
2023-03-12T20:23:30.648Z,45.83
2023-03-12T20:26:32.372Z,45.48
2023-03-12T20:29:34.233Z,45.50
2023-03-12T20:32:36.075Z,45.41
2023-03-12T20:35:37.951Z,45.56
2023-03-12T20:38:40.352Z,45.51
2023-03-12T20:41:41.936Z,45.31
2023-03-12T20:44:43.671Z,45.62
2023-03-12T20:47:45.516Z,45.29
2023-03-12T20:50:50.507Z,45.52
2023-03-12T20:53:52.181Z,45.41
2023-03-12T20:56:53.965Z,45.08
2023-03-12T20:59:55.777Z,45.13
2023-03-12T21:02:57.614Z,45.03
2023-03-12T21:06:01.644Z,45.18
2023-03-12T21:09:03.416Z,44.85
2023-03-12T21:12:05.271Z,45.21
2023-03-12T21:15:09.188Z,45.19
2023-03-12T21:18:11.485Z,45.16
2023-03-12T21:21:13.468Z,45.06
2023-03-12T21:24:15.237Z,45.22
2023-03-12T21:27:16.922Z,45.05
2023-03-12T21:30:18.866Z,45.12
2023-03-12T21:33:21.189Z,45.11
2023-03-12T21:36:24.495Z,45.07
2023-03-12T21:39:26.538Z,45.28
2023-03-12T21:42:28.541Z,45.16
2023-03-12T21:45:30.976Z,45.26
2023-03-12T21:48:33.222Z,45.19
2023-03-12T21:51:34.861Z,45.29
2023-03-12T21:54:36.777Z,45.22
2023-03-12T21:57:38.534Z,45.20
2023-03-12T22:00:40.236Z,45.57
2023-03-12T22:03:44.064Z,45.42
2023-03-12T22:06:45.912Z,45.49
2023-03-12T22:09:47.595Z,45.65
2023-03-12T22:12:49.280Z,45.80
2023-03-12T22:15:55.946Z,45.50
2023-03-12T22:18:58.190Z,45.51
2023-03-12T22:22:00.001Z,45.83
2023-03-12T22:25:01.822Z,45.57
2023-03-12T22:28:03.747Z,45.95
2023-03-12T22:31:07.709Z,46.07
2023-03-12T22:34:09.512Z,46.15
2023-03-12T22:37:11.236Z,46.01
2023-03-12T22:40:13.355Z,46.25
2023-03-12T22:43:15.693Z,46.19
2023-03-12T22:46:18.188Z,46.34
2023-03-12T22:49:19.830Z,46.44
2023-03-12T22:52:21.526Z,46.52
2023-03-12T22:55:23.497Z,46.98
2023-03-12T22:58:25.939Z,46.93
2023-03-12T23:01:27.694Z,47.05
2023-03-12T23:04:29.491Z,46.92
2023-03-12T23:07:31.636Z,47.55
2023-03-12T23:10:33.345Z,47.38
2023-03-12T23:13:37.771Z,47.44
2023-03-12T23:16:39.528Z,47.64
2023-03-12T23:19:44.120Z,47.78
2023-03-12T23:22:45.811Z,47.83
2023-03-12T23:25:57.927Z,48.17
2023-03-12T23:29:00.358Z,48.43
2023-03-12T23:32:02.303Z,48.39
2023-03-12T23:35:04.474Z,48.60
2023-03-12T23:38:06.297Z,48.58
2023-03-12T23:41:18.253Z,49.02
2023-03-12T23:44:19.998Z,49.31
2023-03-12T23:47:21.978Z,49.57
2023-03-12T23:50:23.774Z,49.88
2023-03-12T23:53:25.489Z,49.84
2023-03-12T23:56:32.994Z,50.31
2023-03-12T23:59:34.705Z,50.18
